Time;durP1;ratioP1;P1;durP2;ratioP2;P2;SDS_P1;SDS_P2;PMS_P1;PMS_P2;Temp;Humidity;BMP_temperature;BMP_pressure;BME280_temperature;BME280_humidity;BME280_pressure;Samples;Min_cycle;Max_cycle;Signal;HPM_P1;HPM_P2
2021/05/23 00:01:06;;;;;;;3.87;0.77;;;14.90;90.50;;;;;;5091545;28;20228;-59
2021/05/23 00:03:33;;;;;;;2.57;0.70;;;14.90;91.10;;;;;;5091887;28;20208;-59
2021/05/23 00:06:00;;;;;;;1.33;0.43;;;14.90;91.50;;;;;;5095263;28;20344;-59
2021/05/23 00:08:28;;;;;;;2.53;0.80;;;14.90;91.80;;;;;;5095030;28;20285;-59
2021/05/23 00:10:57;;;;;;;4.13;1.23;;;14.80;92.20;;;;;;5094853;28;20273;-58
2021/05/23 00:13:27;;;;;;;1.97;0.70;;;14.70;92.40;;;;;;5094789;28;20266;-59
2021/05/23 00:15:57;;;;;;;1.90;0.90;;;14.70;93.40;;;;;;5095106;28;20204;-58
2021/05/23 00:18:24;;;;;;;3.97;1.10;;;14.70;94.20;;;;;;5094840;28;20200;-59
2021/05/23 00:20:51;;;;;;;2.63;1.03;;;14.60;94.90;;;;;;5094734;28;20251;-58
2021/05/23 00:23:18;;;;;;;3.10;0.97;;;14.60;95.20;;;;;;5094818;28;20290;-58
2021/05/23 00:25:45;;;;;;;0.93;0.90;;;14.50;96.00;;;;;;5094591;28;20200;-58
2021/05/23 00:28:11;;;;;;;2.07;1.17;;;14.40;97.00;;;;;;5094444;28;20224;-59
2021/05/23 00:30:38;;;;;;;1.67;0.90;;;14.50;97.10;;;;;;5094781;28;20253;-59
2021/05/23 00:33:06;;;;;;;1.73;1.10;;;14.40;97.10;;;;;;5094829;28;20204;-59
2021/05/23 00:35:33;;;;;;;1.83;1.20;;;14.40;97.40;;;;;;5094424;28;20206;-58
2021/05/23 00:37:59;;;;;;;2.40;1.10;;;14.40;98.10;;;;;;5094349;28;20204;-59
2021/05/23 00:40:25;;;;;;;2.90;1.03;;;14.20;98.30;;;;;;5094405;28;20211;-58
2021/05/23 00:42:53;;;;;;;2.60;1.33;;;14.20;99.10;;;;;;5094637;28;20232;-58
2021/05/23 00:45:19;;;;;;;1.00;0.77;;;14.10;99.00;;;;;;5094359;28;20209;-59
2021/05/23 00:47:47;;;;;;;1.93;1.20;;;14.10;99.20;;;;;;5094013;28;20216;-58
2021/05/23 00:50:17;;;;;;;1.80;1.00;;;14.10;99.90;;;;;;5094382;28;20211;-59
2021/05/23 00:52:43;;;;;;;3.80;1.10;;;14.10;99.90;;;;;;5094453;28;20247;-58
2021/05/23 00:55:10;;;;;;;1.90;1.10;;;14.10;99.90;;;;;;5094604;28;20200;-58
2021/05/23 00:57:36;;;;;;;1.67;1.10;;;14.10;99.90;;;;;;5094260;28;20208;-59
2021/05/23 01:00:07;;;;;;;1.70;0.97;;;14.10;99.90;;;;;;5093962;28;20265;-59
2021/05/23 01:02:46;;;;;;;2.97;1.13;;;14.10;99.90;;;;;;5093926;28;20247;-58
2021/05/23 01:05:15;;;;;;;1.67;1.00;;;14.10;99.90;;;;;;5093823;28;20241;-59
2021/05/23 01:07:43;;;;;;;2.20;1.00;;;14.10;99.90;;;;;;5093432;28;20244;-58
2021/05/23 01:10:11;;;;;;;1.57;1.10;;;14.00;99.90;;;;;;5093922;28;20247;-59
2021/05/23 01:13:29;;;;;;;3.03;1.13;;;14.10;99.90;;;;;;5093923;28;20231;-58
2021/05/23 01:15:56;;;;;;;2.33;1.30;;;14.20;99.90;;;;;;5093110;28;20235;-59
2021/05/23 01:18:26;;;;;;;1.57;0.80;;;14.10;99.90;;;;;;5094284;28;20203;-58
2021/05/23 01:20:55;;;;;;;3.10;0.93;;;14.10;99.90;;;;;;5093666;28;20228;-59
2021/05/23 01:23:27;;;;;;;0.97;0.80;;;14.10;99.90;;;;;;5093774;28;20687;-59
2021/05/23 01:26:03;;;;;;;3.70;1.00;;;14.20;99.80;;;;;;5093458;28;20204;-59
2021/05/23 01:28:33;;;;;;;2.20;0.90;;;14.30;99.90;;;;;;5093173;28;20224;-59
2021/05/23 01:31:00;;;;;;;2.00;1.17;;;14.30;99.70;;;;;;5093575;28;20311;-59
2021/05/23 01:33:26;;;;;;;1.50;0.83;;;14.40;99.50;;;;;;5093342;28;20208;-59
2021/05/23 01:35:57;;;;;;;2.67;0.93;;;14.50;99.50;;;;;;5093178;28;20249;-58
2021/05/23 01:38:24;;;;;;;1.67;0.80;;;14.50;99.50;;;;;;5093154;28;20595;-59
2021/05/23 01:40:56;;;;;;;2.07;1.00;;;14.50;99.50;;;;;;5093131;28;20618;-59
2021/05/23 01:43:24;;;;;;;1.50;0.87;;;14.40;99.90;;;;;;5093141;28;20200;-57
2021/05/23 01:45:51;;;;;;;2.30;0.93;;;14.40;99.80;;;;;;5093029;28;20207;-58
2021/05/23 01:48:17;;;;;;;1.73;0.90;;;14.30;99.90;;;;;;5093281;28;20224;-59
2021/05/23 01:50:44;;;;;;;1.73;0.87;;;14.30;99.90;;;;;;5093004;28;20313;-59
2021/05/23 01:53:10;;;;;;;3.60;1.23;;;14.30;99.90;;;;;;5093102;28;20200;-58
2021/05/23 01:55:37;;;;;;;3.57;1.20;;;14.30;99.90;;;;;;5092891;28;20690;-59
2021/05/23 01:58:04;;;;;;;1.87;0.97;;;14.30;99.90;;;;;;5093239;28;20204;-58
2021/05/23 02:00:34;;;;;;;2.63;1.10;;;14.30;99.90;;;;;;5093267;28;20215;-58
2021/05/23 02:03:03;;;;;;;3.33;1.30;;;14.20;99.90;;;;;;5093459;28;20208;-59
2021/05/23 02:05:29;;;;;;;1.83;0.90;;;14.20;99.90;;;;;;5092885;28;20215;-59
2021/05/23 02:07:55;;;;;;;1.73;0.90;;;14.20;99.90;;;;;;5092546;28;20224;-59
2021/05/23 02:10:22;;;;;;;2.97;1.40;;;14.20;99.90;;;;;;5092875;28;20201;-58
2021/05/23 02:12:48;;;;;;;3.33;1.10;;;14.20;99.90;;;;;;5092727;28;20231;-59
2021/05/23 02:15:16;;;;;;;1.47;1.10;;;14.20;99.90;;;;;;5092558;28;20200;-59
2021/05/23 02:17:45;;;;;;;12.77;8.03;;;14.30;99.90;;;;;;5092634;28;20207;-59
2021/05/23 02:20:14;;;;;;;5.37;3.80;;;14.20;99.90;;;;;;5092517;28;20200;-58
2021/05/23 02:22:42;;;;;;;6.77;2.70;;;14.20;99.90;;;;;;5092085;28;20239;-59
2021/05/23 02:25:10;;;;;;;3.77;2.10;;;14.20;99.90;;;;;;5092712;28;20204;-59
2021/05/23 02:27:38;;;;;;;1.90;1.33;;;14.20;99.90;;;;;;5092088;28;20215;-59
2021/05/23 02:30:10;;;;;;;4.20;1.10;;;14.10;99.90;;;;;;5092644;28;20204;-59
2021/05/23 02:32:36;;;;;;;4.97;1.00;;;14.10;99.90;;;;;;5092196;28;20236;-59
2021/05/23 02:35:05;;;;;;;2.73;1.13;;;14.00;99.90;;;;;;5092220;28;20208;-60
2021/05/23 02:37:31;;;;;;;2.37;1.13;;;14.10;99.90;;;;;;5092391;28;20204;-60
2021/05/23 02:40:00;;;;;;;1.63;1.10;;;14.10;99.90;;;;;;5092218;28;20672;-59
2021/05/23 02:42:26;;;;;;;3.47;1.20;;;14.10;99.90;;;;;;5091990;28;20236;-60
2021/05/23 02:44:52;;;;;;;1.70;1.10;;;14.10;99.90;;;;;;5091999;28;20205;-60
2021/05/23 02:47:18;;;;;;;1.97;1.00;;;13.80;99.90;;;;;;5092423;28;20204;-58
2021/05/23 02:49:45;;;;;;;1.70;0.87;;;13.70;99.90;;;;;;5092344;28;20297;-58
2021/05/23 02:52:12;;;;;;;1.50;0.60;;;13.50;99.90;;;;;;5092624;28;20224;-58
2021/05/23 02:54:39;;;;;;;2.40;0.80;;;13.40;99.90;;;;;;5092361;28;20584;-58
2021/05/23 02:57:06;;;;;;;1.30;0.77;;;13.40;99.90;;;;;;5092204;28;20204;-58
2021/05/23 02:59:32;;;;;;;2.47;0.77;;;13.30;99.90;;;;;;5091543;28;20204;-58
2021/05/23 03:01:58;;;;;;;1.70;0.70;;;13.20;99.90;;;;;;5092082;28;20688;-58
2021/05/23 03:04:25;;;;;;;1.90;0.60;;;13.30;99.90;;;;;;5092067;28;20588;-58
2021/05/23 03:06:51;;;;;;;0.83;0.40;;;13.20;99.90;;;;;;5091949;28;20208;-57
2021/05/23 03:09:18;;;;;;;2.23;0.70;;;13.20;99.90;;;;;;5091800;28;20235;-58
2021/05/23 03:11:46;;;;;;;0.83;0.40;;;13.10;99.90;;;;;;5091647;28;20228;-59
2021/05/23 03:14:13;;;;;;;0.97;0.60;;;13.00;99.90;;;;;;5092092;28;20643;-58
2021/05/23 03:16:40;;;;;;;1.07;0.57;;;13.00;99.90;;;;;;5091619;28;20215;-59
2021/05/23 03:19:06;;;;;;;0.53;0.50;;;12.90;99.90;;;;;;5092212;28;20197;-57
2021/05/23 03:21:33;;;;;;;0.90;0.50;;;12.90;99.90;;;;;;5091867;28;20228;-57
2021/05/23 03:24:00;;;;;;;2.73;0.77;;;13.00;99.90;;;;;;5091516;28;20276;-58
2021/05/23 03:26:27;;;;;;;1.20;0.60;;;12.90;99.90;;;;;;5092004;28;20622;-59
2021/05/23 03:28:53;;;;;;;1.27;0.53;;;12.90;99.90;;;;;;5091810;28;20216;-59
2021/05/23 03:31:20;;;;;;;2.03;0.60;;;12.90;99.90;;;;;;5092357;28;20715;-59
2021/05/23 03:33:46;;;;;;;2.13;0.57;;;13.00;99.90;;;;;;5093503;28;20205;-60
2021/05/23 03:36:12;;;;;;;1.97;0.70;;;13.00;99.90;;;;;;5092817;28;20211;-59
2021/05/23 03:38:38;;;;;;;1.23;0.43;;;13.00;99.90;;;;;;5094663;28;20422;-58
2021/05/23 03:41:04;;;;;;;1.30;0.70;;;13.00;99.90;;;;;;5096685;28;20239;-60
2021/05/23 03:43:31;;;;;;;0.33;0.30;;;13.00;99.90;;;;;;5095474;28;20208;-58
2021/05/23 03:45:58;;;;;;;0.67;0.40;;;13.00;99.90;;;;;;5095658;28;20217;-57
2021/05/23 03:48:24;;;;;;;0.77;0.50;;;12.90;99.90;;;;;;5095866;28;20273;-57
2021/05/23 03:50:50;;;;;;;1.13;0.63;;;12.90;99.90;;;;;;5095518;28;20223;-57
2021/05/23 03:53:16;;;;;;;1.03;0.40;;;12.80;99.90;;;;;;5095674;28;20200;-57
2021/05/23 03:55:42;;;;;;;2.33;0.43;;;12.90;99.90;;;;;;5095397;28;20490;-57
2021/05/23 03:58:09;;;;;;;1.00;0.47;;;12.80;99.90;;;;;;5095209;28;20238;-59
2021/05/23 04:00:36;;;;;;;0.43;0.30;;;12.80;99.90;;;;;;5095118;28;20212;-58
2021/05/23 04:03:03;;;;;;;0.30;0.20;;;12.80;99.90;;;;;;5095321;28;20208;-56
2021/05/23 04:05:31;;;;;;;0.70;0.30;;;12.80;99.90;;;;;;5095318;28;20208;-57
2021/05/23 04:07:58;;;;;;;0.47;0.20;;;12.80;99.90;;;;;;5095008;28;20298;-58
2021/05/23 04:10:29;;;;;;;0.77;0.30;;;12.80;99.90;;;;;;5095117;28;20212;-58
2021/05/23 04:12:57;;;;;;;1.43;0.40;;;12.80;99.90;;;;;;5094806;28;20227;-58
2021/05/23 04:15:24;;;;;;;0.80;0.57;;;12.90;99.90;;;;;;5094988;28;20211;-57
2021/05/23 04:17:52;;;;;;;0.70;0.47;;;12.90;99.90;;;;;;5094901;28;20298;-59
2021/05/23 04:20:19;;;;;;;1.80;0.70;;;12.90;99.90;;;;;;5094965;28;20297;-57
2021/05/23 04:22:46;;;;;;;1.87;1.23;;;12.90;99.90;;;;;;5094846;28;20220;-57
2021/05/23 04:25:13;;;;;;;0.93;0.70;;;13.00;99.90;;;;;;5094894;28;20207;-57
2021/05/23 04:27:41;;;;;;;0.93;0.50;;;13.00;99.90;;;;;;5094532;28;20230;-58
2021/05/23 04:30:09;;;;;;;0.73;0.40;;;13.00;99.90;;;;;;5094864;28;20204;-57
2021/05/23 04:32:36;;;;;;;1.80;0.70;;;13.00;99.90;;;;;;5094803;28;20228;-58
2021/05/23 04:35:05;;;;;;;1.03;0.63;;;13.00;99.90;;;;;;5094976;28;20686;-57
2021/05/23 04:37:32;;;;;;;0.73;0.47;;;13.10;99.90;;;;;;5095757;28;20668;-59
2021/05/23 04:39:58;;;;;;;0.90;0.50;;;13.20;99.90;;;;;;5094691;28;20203;-58
2021/05/23 04:42:24;;;;;;;0.93;0.30;;;13.20;99.90;;;;;;5094483;28;20604;-57
2021/05/23 04:44:51;;;;;;;0.87;0.60;;;13.10;99.90;;;;;;5094611;28;20204;-57
2021/05/23 04:47:18;;;;;;;1.23;0.47;;;13.10;99.90;;;;;;5094492;28;20208;-57
2021/05/23 04:49:44;;;;;;;0.50;0.40;;;13.20;99.90;;;;;;5092971;28;20243;-59
2021/05/23 04:52:13;;;;;;;0.63;0.60;;;13.20;99.90;;;;;;5094001;28;20235;-57
2021/05/23 04:54:41;;;;;;;2.23;1.40;;;13.30;99.90;;;;;;5093944;28;20261;-57
2021/05/23 04:57:08;;;;;;;4.10;2.30;;;13.40;99.90;;;;;;5093990;28;20205;-56
2021/05/23 04:59:35;;;;;;;3.13;1.30;;;13.50;99.90;;;;;;5093857;28;20554;-58
2021/05/23 05:02:01;;;;;;;3.50;2.17;;;13.60;99.90;;;;;;5093927;28;20228;-55
2021/05/23 05:04:27;;;;;;;1.83;0.87;;;13.70;99.90;;;;;;5093750;28;20207;-56
2021/05/23 05:06:53;;;;;;;1.17;0.93;;;13.70;99.90;;;;;;5094032;28;20206;-56
2021/05/23 05:09:20;;;;;;;2.90;1.57;;;13.80;99.90;;;;;;5093744;28;20443;-56
2021/05/23 05:11:47;;;;;;;1.37;0.60;;;13.80;99.90;;;;;;5094266;28;20224;-56
2021/05/23 05:14:13;;;;;;;1.83;0.87;;;13.90;99.90;;;;;;5093642;28;20227;-56
2021/05/23 05:16:40;;;;;;;1.00;0.70;;;13.80;99.90;;;;;;5093553;28;20215;-56
2021/05/23 05:19:06;;;;;;;2.27;0.67;;;13.90;99.90;;;;;;5093231;28;20295;-58
2021/05/23 05:21:32;;;;;;;2.33;0.57;;;13.90;99.90;;;;;;5093472;28;20250;-57
2021/05/23 05:23:59;;;;;;;1.33;0.70;;;14.00;99.90;;;;;;5093133;28;20207;-56
2021/05/23 05:26:26;;;;;;;1.00;0.40;;;14.10;99.90;;;;;;5093443;28;20208;-56
2021/05/23 05:28:53;;;;;;;1.60;0.90;;;14.10;99.90;;;;;;5093123;28;20315;-56
2021/05/23 05:31:19;;;;;;;1.67;0.63;;;14.20;99.90;;;;;;5093123;28;20232;-56
2021/05/23 05:33:45;;;;;;;1.27;0.90;;;14.20;99.90;;;;;;5093217;28;20208;-56
2021/05/23 05:36:11;;;;;;;1.93;0.40;;;14.30;99.90;;;;;;5093119;28;20203;-56
2021/05/23 05:38:38;;;;;;;1.50;0.80;;;14.30;99.90;;;;;;5093316;28;20200;-56
2021/05/23 05:41:04;;;;;;;2.87;1.67;;;14.40;99.90;;;;;;5093119;28;20476;-56
2021/05/23 05:43:34;;;;;;;1.63;0.57;;;14.50;99.90;;;;;;5093108;28;20643;-58
2021/05/23 05:46:00;;;;;;;1.80;0.50;;;14.70;99.90;;;;;;5093123;28;20683;-58
2021/05/23 05:48:27;;;;;;;1.57;0.40;;;14.90;99.90;;;;;;5092793;28;20254;-58
2021/05/23 05:50:54;;;;;;;1.13;0.60;;;15.10;99.90;;;;;;5093143;28;20565;-56
2021/05/23 05:53:20;;;;;;;1.37;0.97;;;15.20;99.90;;;;;;5092901;28;20277;-56
2021/05/23 05:55:46;;;;;;;1.10;0.67;;;15.20;99.90;;;;;;5092825;28;20208;-57
2021/05/23 05:58:12;;;;;;;1.07;0.40;;;15.20;99.90;;;;;;5092751;28;20667;-56
2021/05/23 06:00:39;;;;;;;1.47;0.93;;;15.10;99.90;;;;;;5092968;28;20215;-57
2021/05/23 06:03:06;;;;;;;2.33;0.80;;;14.90;99.90;;;;;;5092932;28;20212;-58
2021/05/23 06:05:32;;;;;;;4.83;0.90;;;14.70;99.90;;;;;;5092408;28;20216;-58
2021/05/23 06:07:58;;;;;;;1.70;0.60;;;14.70;99.90;;;;;;5092475;28;20204;-57
2021/05/23 06:10:24;;;;;;;1.57;0.50;;;14.60;99.90;;;;;;5092667;28;20204;-58
2021/05/23 06:12:51;;;;;;;1.23;0.50;;;14.60;99.90;;;;;;5092488;28;20228;-57
2021/05/23 06:15:17;;;;;;;1.97;0.83;;;14.60;99.90;;;;;;5092458;28;20204;-58
2021/05/23 06:17:44;;;;;;;3.07;1.40;;;14.70;99.90;;;;;;5092387;28;20959;-60
2021/05/23 06:20:11;;;;;;;3.93;1.13;;;14.80;99.90;;;;;;5092262;28;20876;-58
2021/05/23 06:22:38;;;;;;;2.00;0.70;;;15.00;99.90;;;;;;5092478;28;20224;-58
2021/05/23 06:25:05;;;;;;;2.97;1.07;;;15.20;99.90;;;;;;5092388;28;20204;-58
2021/05/23 06:27:32;;;;;;;2.17;0.80;;;15.60;99.90;;;;;;5092406;28;20212;-60
2021/05/23 06:29:58;;;;;;;2.20;0.67;;;16.00;99.90;;;;;;5092224;28;20227;-56
2021/05/23 06:32:27;;;;;;;0.83;0.50;;;16.40;99.80;;;;;;5091850;28;20229;-58
2021/05/23 06:34:54;;;;;;;2.00;0.50;;;16.80;99.30;;;;;;5092127;28;20204;-59
2021/05/23 06:37:21;;;;;;;4.23;1.10;;;17.30;97.70;;;;;;5092052;28;20212;-62
2021/05/23 06:39:47;;;;;;;2.05;0.82;;;17.60;96.50;;;;;;5086941;28;20475;-59
2021/05/23 06:42:13;;;;;;;1.13;0.70;;;17.80;96.40;;;;;;5091480;28;20239;-59
2021/05/23 06:44:39;;;;;;;1.00;0.50;;;18.10;96.30;;;;;;5091452;28;20222;-59
2021/05/23 06:47:06;;;;;;;2.83;0.97;;;19.10;94.20;;;;;;5091330;28;20208;-59
2021/05/23 06:49:32;;;;;;;2.22;0.63;;;20.80;92.20;;;;;;5091233;28;20227;-59
2021/05/23 06:52:00;;;;;;;1.65;0.68;;;22.10;88.20;;;;;;5091328;28;20380;-59
2021/05/23 06:54:26;;;;;;;1.17;0.70;;;22.40;84.40;;;;;;5091402;28;20208;-59
2021/05/23 06:56:53;;;;;;;3.22;2.00;;;22.70;81.30;;;;;;5091742;28;20200;-60
2021/05/23 06:59:19;;;;;;;3.75;1.83;;;22.90;80.10;;;;;;5091337;28;20211;-58
2021/05/23 07:01:45;;;;;;;2.03;0.80;;;23.80;76.90;;;;;;5091288;28;20255;-59
2021/05/23 07:04:12;;;;;;;1.30;0.68;;;24.40;75.50;;;;;;5091374;28;20212;-61
2021/05/23 07:06:38;;;;;;;2.03;0.50;;;25.60;71.00;;;;;;5091468;28;20253;-63
2021/05/23 07:09:05;;;;;;;1.75;0.68;;;26.60;64.90;;;;;;5091126;28;20230;-62
2021/05/23 07:11:34;;;;;;;2.55;1.30;;;27.00;62.00;;;;;;5091580;28;20250;-62
2021/05/23 07:14:00;;;;;;;1.88;1.00;;;27.50;60.90;;;;;;5090817;28;20204;-63
2021/05/23 07:16:27;;;;;;;2.08;0.63;;;27.60;59.20;;;;;;5090635;28;20220;-63
2021/05/23 07:18:53;;;;;;;1.40;0.90;;;27.00;59.40;;;;;;5091155;28;20664;-62
2021/05/23 07:21:19;;;;;;;1.95;0.80;;;26.10;60.80;;;;;;5091260;28;20231;-62
2021/05/23 07:23:45;;;;;;;1.17;0.68;;;25.40;61.70;;;;;;5090641;28;20200;-63
2021/05/23 07:26:13;;;;;;;1.33;0.85;;;25.30;62.70;;;;;;5091195;28;20211;-63
2021/05/23 07:28:39;;;;;;;3.80;0.90;;;26.20;60.90;;;;;;5090786;28;20223;-63
2021/05/23 07:31:05;;;;;;;1.92;0.85;;;26.90;57.20;;;;;;5091059;28;20588;-62
2021/05/23 07:33:31;;;;;;;2.83;0.77;;;26.40;57.00;;;;;;5091202;28;20208;-62
2021/05/23 07:35:57;;;;;;;1.23;0.90;;;25.90;57.90;;;;;;5091220;28;20205;-62
2021/05/23 07:38:24;;;;;;;1.63;0.73;;;25.30;59.10;;;;;;5090887;28;20207;-62
2021/05/23 07:40:50;;;;;;;2.55;0.85;;;24.40;60.80;;;;;;5090766;28;21007;-62
2021/05/23 07:43:17;;;;;;;1.98;0.82;;;23.70;60.80;;;;;;5090759;28;20676;-62
2021/05/23 07:45:43;;;;;;;1.85;1.17;;;23.70;62.90;;;;;;5091185;28;20204;-64
2021/05/23 07:48:10;;;;;;;2.90;1.80;;;24.40;61.70;;;;;;5091463;28;20273;-62
2021/05/23 07:50:36;;;;;;;1.48;0.98;;;24.50;61.00;;;;;;5090841;28;20207;-63
2021/05/23 07:53:02;;;;;;;2.38;0.98;;;24.20;61.70;;;;;;5091107;28;20239;-60
2021/05/23 07:55:28;;;;;;;4.43;1.15;;;23.50;64.70;;;;;;5091245;28;20261;-61
2021/05/23 07:57:55;;;;;;;0.90;0.60;;;22.40;69.70;;;;;;5090664;28;20208;-64
2021/05/23 08:00:22;;;;;;;2.22;0.70;;;21.40;73.60;;;;;;5089491;28;20204;-59
2021/05/23 08:02:48;;;;;;;2.45;0.85;;;20.50;71.60;;;;;;5091008;28;20572;-59
2021/05/23 08:05:15;;;;;;;2.67;0.60;;;19.80;77.30;;;;;;5090524;28;20318;-60
2021/05/23 08:07:41;;;;;;;1.98;0.73;;;19.30;80.20;;;;;;5090581;28;20688;-60
2021/05/23 08:10:10;;;;;;;1.97;0.80;;;18.60;81.30;;;;;;5091153;28;20254;-59
2021/05/23 08:12:36;;;;;;;1.65;0.65;;;17.80;82.90;;;;;;5091237;28;20235;-58
2021/05/23 08:15:04;;;;;;;1.93;0.80;;;17.20;85.70;;;;;;5091037;28;20211;-59
2021/05/23 08:17:31;;;;;;;1.97;0.60;;;16.80;87.80;;;;;;5091427;28;20208;-58
2021/05/23 08:19:57;;;;;;;1.13;0.63;;;16.50;90.30;;;;;;5090840;28;20200;-59
2021/05/23 08:22:24;;;;;;;2.30;0.80;;;16.40;91.60;;;;;;5090862;28;20247;-59
2021/05/23 08:24:51;;;;;;;1.83;1.10;;;16.50;92.60;;;;;;5091645;28;20590;-59
2021/05/23 08:27:17;;;;;;;1.40;0.83;;;16.70;93.90;;;;;;5094573;28;20205;-58
2021/05/23 08:29:43;;;;;;;2.73;0.60;;;17.30;93.90;;;;;;5094715;28;20597;-59
2021/05/23 08:32:09;;;;;;;4.07;1.02;;;18.30;91.60;;;;;;5094762;28;20228;-59
2021/05/23 08:34:36;;;;;;;2.55;1.00;;;19.70;90.30;;;;;;5094671;28;20204;-59
2021/05/23 08:37:03;;;;;;;1.10;0.70;;;20.70;84.60;;;;;;5094393;28;20204;-60
2021/05/23 08:39:29;;;;;;;2.80;2.45;;;21.90;81.40;;;;;;5094383;28;20217;-60
2021/05/23 08:41:56;;;;;;;2.88;1.75;;;22.50;77.80;;;;;;5094667;28;20256;-60
2021/05/23 08:44:23;;;;;;;1.65;0.60;;;22.30;78.70;;;;;;5094560;28;20212;-59
2021/05/23 08:46:51;;;;;;;1.92;1.20;;;21.90;78.30;;;;;;5094269;28;20643;-59
2021/05/23 08:49:18;;;;;;;1.77;0.80;;;21.40;80.70;;;;;;5094097;28;20225;-59
2021/05/23 08:51:45;;;;;;;1.88;0.85;;;20.60;80.10;;;;;;5094074;28;20220;-59
2021/05/23 08:54:12;;;;;;;2.30;0.85;;;19.80;81.50;;;;;;5094574;28;20208;-59
2021/05/23 08:56:40;;;;;;;1.83;0.70;;;19.20;84.70;;;;;;5094814;28;20253;-59
2021/05/23 08:59:07;;;;;;;2.03;0.80;;;18.70;84.90;;;;;;5094541;28;20204;-58
2021/05/23 09:01:33;;;;;;;1.38;0.80;;;18.40;87.60;;;;;;5094238;28;20224;-59
2021/05/23 09:04:00;;;;;;;1.60;0.63;;;18.20;84.20;;;;;;5094135;28;20257;-58
2021/05/23 09:06:27;;;;;;;2.33;0.60;;;18.20;84.60;;;;;;5094229;28;20207;-58
2021/05/23 09:08:58;;;;;;;2.47;1.10;;;18.40;82.40;;;;;;5093635;28;20250;-58
2021/05/23 09:11:24;;;;;;;2.00;0.67;;;18.70;82.40;;;;;;5094118;28;20224;-59
2021/05/23 09:13:52;;;;;;;3.63;0.70;;;19.10;81.10;;;;;;5093943;28;20474;-59
2021/05/23 09:16:19;;;;;;;1.58;1.00;;;19.30;82.00;;;;;;5093751;28;20208;-59
2021/05/23 09:18:47;;;;;;;1.65;0.60;;;19.30;80.00;;;;;;5093657;28;20581;-58
2021/05/23 09:21:17;;;;;;;1.83;0.80;;;19.30;80.00;;;;;;5093266;28;20220;-58
2021/05/23 09:23:47;;;;;;;4.78;2.17;;;19.30;79.80;;;;;;5093415;28;20204;-58
2021/05/23 09:26:17;;;;;;;1.80;0.73;;;19.40;77.30;;;;;;5093707;28;20654;-59
2021/05/23 09:28:44;;;;;;;2.63;1.20;;;19.50;77.00;;;;;;5093474;28;20691;-59
2021/05/23 09:31:11;;;;;;;2.55;1.50;;;20.00;76.90;;;;;;5093264;28;20224;-60
2021/05/23 09:33:41;;;;;;;2.25;0.90;;;20.40;75.90;;;;;;5093258;28;20244;-59
2021/05/23 09:36:08;;;;;;;3.17;0.80;;;20.70;74.90;;;;;;5089414;28;20448;-63
2021/05/23 09:38:34;;;;;;;2.22;0.55;;;20.80;72.30;;;;;;5092876;28;20212;-62
2021/05/23 09:41:00;;;;;;;1.38;0.85;;;20.90;70.90;;;;;;5093581;28;20746;-63
2021/05/23 09:43:27;;;;;;;4.03;0.75;;;21.10;70.30;;;;;;5093087;28;20581;-64
2021/05/23 09:45:55;;;;;;;1.23;0.55;;;21.10;69.90;;;;;;5092753;28;20215;-61
2021/05/23 09:48:23;;;;;;;1.05;0.50;;;20.90;73.80;;;;;;5092660;28;20216;-60
2021/05/23 09:50:52;;;;;;;3.60;0.70;;;20.70;72.40;;;;;;5093085;28;20243;-61
2021/05/23 09:53:21;;;;;;;5.18;1.52;;;20.60;70.00;;;;;;5092821;28;20215;-60
2021/05/23 09:55:57;;;;;;;1.17;0.80;;;20.80;69.70;;;;;;5093000;28;20214;-59
2021/05/23 09:58:24;;;;;;;2.17;0.75;;;21.40;69.50;;;;;;5092315;28;20283;-58
2021/05/23 10:00:52;;;;;;;1.02;0.60;;;21.80;67.70;;;;;;5092382;28;20220;-58
2021/05/23 10:03:23;;;;;;;1.40;0.60;;;21.80;64.40;;;;;;5092585;28;20215;-58
2021/05/23 10:05:49;;;;;;;2.83;1.88;;;21.70;63.10;;;;;;5092843;28;20211;-59
2021/05/23 10:08:16;;;;;;;3.63;0.70;;;21.40;62.10;;;;;;5091785;28;20500;-63
2021/05/23 10:10:43;;;;;;;1.98;0.50;;;21.20;64.60;;;;;;5092268;28;20252;-61
2021/05/23 10:13:09;;;;;;;2.80;0.47;;;20.90;68.10;;;;;;5092644;28;20207;-61
2021/05/23 10:15:37;;;;;;;1.25;0.40;;;20.80;69.10;;;;;;5093009;28;20581;-62
2021/05/23 10:18:04;;;;;;;2.58;0.60;;;20.50;75.10;;;;;;5092953;28;20233;-60
2021/05/23 10:20:31;;;;;;;6.35;2.38;;;20.20;79.20;;;;;;5093376;28;20200;-61
2021/05/23 10:22:59;;;;;;;2.45;1.52;;;19.90;79.80;;;;;;5092894;28;20250;-59
2021/05/23 10:25:27;;;;;;;1.73;0.90;;;19.80;78.80;;;;;;5092255;28;20208;-59
2021/05/23 10:27:55;;;;;;;3.20;0.90;;;19.40;81.00;;;;;;5092094;28;20690;-57
2021/05/23 10:30:23;;;;;;;2.15;0.63;;;18.90;84.00;;;;;;5092526;28;20232;-62
2021/05/23 10:32:49;;;;;;;2.57;0.80;;;18.40;86.50;;;;;;5091978;28;20224;-62
2021/05/23 10:35:20;;;;;;;1.50;0.70;;;18.00;90.50;;;;;;5092263;28;20208;-60
2021/05/23 10:37:48;;;;;;;3.77;0.90;;;17.70;91.00;;;;;;5092319;28;20212;-59
2021/05/23 10:40:23;;;;;;;1.73;1.10;;;17.50;92.00;;;;;;5092369;28;20203;-60
2021/05/23 10:42:54;;;;;;;1.60;0.80;;;17.70;92.10;;;;;;5092111;28;20239;-60
2021/05/23 10:45:25;;;;;;;1.50;0.50;;;18.10;91.40;;;;;;5092394;28;20253;-58
2021/05/23 10:47:51;;;;;;;5.97;2.97;;;18.40;92.00;;;;;;5091533;28;20210;-59
2021/05/23 10:50:29;;;;;;;3.27;2.00;;;18.50;91.40;;;;;;5092081;28;20730;-59
2021/05/23 10:52:58;;;;;;;1.67;0.85;;;18.40;92.00;;;;;;5092391;28;20274;-59
2021/05/23 10:55:24;;;;;;;2.20;0.70;;;18.30;91.50;;;;;;5092722;28;20206;-58
2021/05/23 10:57:52;;;;;;;1.10;0.57;;;18.20;90.70;;;;;;5092466;28;20210;-59
2021/05/23 11:00:21;;;;;;;1.70;0.70;;;18.20;91.80;;;;;;5092060;28;20201;-59
2021/05/23 11:02:49;;;;;;;1.80;0.83;;;18.10;91.30;;;;;;5091831;28;20228;-59
2021/05/23 11:05:17;;;;;;;3.20;0.93;;;18.00;91.60;;;;;;5092064;28;20206;-59
2021/05/23 11:07:55;;;;;;;1.33;0.52;;;17.90;92.30;;;;;;5091906;28;20678;-60
2021/05/23 11:10:24;;;;;;;2.53;0.73;;;17.80;91.50;;;;;;5091874;28;20231;-60
2021/05/23 11:12:52;;;;;;;2.83;1.85;;;17.90;93.30;;;;;;5091589;28;20244;-59
2021/05/23 11:15:18;;;;;;;1.50;0.50;;;18.20;91.10;;;;;;5091292;28;20246;-59
2021/05/23 11:17:45;;;;;;;1.37;0.70;;;18.50;91.20;;;;;;5091428;28;20208;-60
2021/05/23 11:20:16;;;;;;;1.90;0.60;;;18.80;89.00;;;;;;5091326;28;20199;-59
2021/05/23 11:22:45;;;;;;;2.85;0.95;;;19.40;87.80;;;;;;5091480;28;20251;-59
2021/05/23 11:25:14;;;;;;;1.70;0.73;;;19.90;85.50;;;;;;5091491;28;20207;-59
2021/05/23 11:27:41;;;;;;;3.03;0.65;;;20.20;83.60;;;;;;5091145;28;20676;-60
2021/05/23 11:30:11;;;;;;;2.83;1.35;;;20.20;82.70;;;;;;5091205;28;20273;-59
2021/05/23 11:32:38;;;;;;;1.77;0.90;;;20.30;82.00;;;;;;5091242;28;20739;-59
2021/05/23 11:35:04;;;;;;;1.70;0.80;;;20.40;80.20;;;;;;5091746;28;20245;-60
2021/05/23 11:37:39;;;;;;;1.88;1.00;;;20.50;79.50;;;;;;5091952;28;20210;-59
2021/05/23 11:40:09;;;;;;;2.97;0.55;;;20.60;80.90;;;;;;5091882;28;20199;-59
2021/05/23 11:42:42;;;;;;;8.48;6.78;;;20.80;79.30;;;;;;5091112;28;20745;-58
2021/05/23 11:45:22;;;;;;;2.67;1.13;;;20.60;84.90;;;;;;5091445;28;20223;-59
2021/05/23 11:47:50;;;;;;;3.45;1.58;;;20.40;88.30;;;;;;5091380;28;20226;-59
2021/05/23 11:50:27;;;;;;;1.02;0.70;;;20.20;84.10;;;;;;5091211;28;20692;-58
2021/05/23 11:52:56;;;;;;;2.65;1.30;;;19.80;86.20;;;;;;5089571;28;20544;-57
2021/05/23 11:55:23;;;;;;;2.03;1.13;;;19.50;88.80;;;;;;5069193;28;20266;-60
2021/05/23 11:57:51;;;;;;;3.42;1.00;;;19.10;90.40;;;;;;5071158;28;20205;-59
2021/05/23 12:00:22;;;;;;;2.70;1.10;;;18.70;92.20;;;;;;5074938;28;20265;-61
2021/05/23 12:02:56;;;;;;;2.70;1.40;;;18.40;93.30;;;;;;5074408;28;20358;-63
2021/05/23 12:05:24;;;;;;;10.53;8.00;;;18.30;94.90;;;;;;5074654;28;20739;-62
2021/05/23 12:07:52;;;;;;;8.07;5.03;;;18.50;94.50;;;;;;5074868;28;20208;-64
2021/05/23 12:10:24;;;;;;;3.03;0.73;;;19.00;92.40;;;;;;5074878;28;20221;-64
2021/05/23 12:12:52;;;;;;;2.00;0.75;;;19.60;91.10;;;;;;5074835;28;20225;-60
2021/05/23 12:15:20;;;;;;;2.00;0.70;;;20.30;87.10;;;;;;5074392;28;20205;-61
2021/05/23 12:17:53;;;;;;;2.05;1.00;;;20.60;85.70;;;;;;5074265;28;20223;-59
2021/05/23 12:20:20;;;;;;;1.90;0.70;;;20.80;86.40;;;;;;5075040;28;20250;-59
2021/05/23 12:22:50;;;;;;;2.10;1.20;;;20.80;83.60;;;;;;5074602;28;20239;-59
2021/05/23 12:25:18;;;;;;;2.42;0.90;;;20.90;83.70;;;;;;5074501;28;20252;-59
2021/05/23 12:27:46;;;;;;;3.10;1.30;;;21.30;83.20;;;;;;5074223;28;20216;-59
2021/05/23 12:30:15;;;;;;;4.07;1.00;;;21.70;82.60;;;;;;5074295;28;20228;-59
2021/05/23 12:32:52;;;;;;;0.55;0.40;;;21.80;79.30;;;;;;5074617;28;20228;-60
2021/05/23 12:35:21;;;;;;;1.67;0.57;;;21.70;82.20;;;;;;5074600;28;20243;-60
2021/05/23 12:37:49;;;;;;;1.27;0.60;;;21.50;80.80;;;;;;5073916;28;20577;-60
2021/05/23 12:40:23;;;;;;;3.95;0.55;;;21.00;81.10;;;;;;5074421;28;20204;-60
2021/05/23 12:42:50;;;;;;;2.08;1.00;;;20.30;79.70;;;;;;5075675;28;20227;-62
2021/05/23 12:45:18;;;;;;;2.28;1.05;;;19.60;82.90;;;;;;5093401;28;20234;-63
2021/05/23 12:47:52;;;;;;;2.58;0.80;;;19.40;84.00;;;;;;5094135;28;20664;-61
2021/05/23 12:50:37;;;;;;;1.60;0.70;;;19.40;85.80;;;;;;5093851;28;20224;-61